الصفحة الرئيسية
METAR-TAF:

METAR-TAF

مطار :

Ubon Ratchathani, تايلاند

دائرة عرض: 15-15N, خط طول: 104-52E, ارتفاع: 123 متر

مراقبة الطقس الحالي

تاريخ ووقت الإصدار 1ساعة و 1 دقيقة قبل الساعة 17:00UTC
ريح 9 عقدة من الشرق, الاتجاه يتراوح بين الشرق/الشمال الشرقي و الجنوب الشرقي
درجة الحرارة 27°درجة مئوية
الرطوبة 84%
ضغط 1013 hPa
الرؤية 10 كم أو أكثر
غيوم قليلة على ارتفاع 1500 قدم, مزنة ركامية.
غيوم مفككة على ارتفاع 3000 قدم
عاصفة رعدية

METAR: VTUU 211700Z 10009KT 070V140 9999 TS FEW015CB BKN030 27/24 Q1013 NOSIG

زمن: 01:01 (18:01 UTC)

توقعات

تاريخ ووقت الإصدار 1ساعة و 1 دقيقة قبل الساعة 17:00UTC
التوقعات صالحة من21 الساعة 18 UTC إلى 22 الساعة 18 UTC
ريح 5 عقدة من الشرق/الشمال الشرقي
الرؤية 10 كم أو أكثر
غيوم قليلة على ارتفاع 3500 قدم
مؤقت
من 21 الساعة 18 UTC إلى 21 الساعة 22 UTC
ريح 15 عقدةمن اتجاهات متغيرة
الرؤية: 4500 متر
غيوم قليلة على ارتفاع 1800 قدم, مزنة ركامية.
غيوم مفككة على ارتفاع 2500 قدم
عاصفة رعدية, مطر

TAF: VTUU 211700Z 2118/2218 07005KT 9999 FEW035 TEMPO 2118/2122 VRB15KT 4500 TSRA FEW018CB BKN025

أرصاد الطقس والتوقعات من أكثر من 4000 مطار (تقارير الطقس للمطار METAR والتنبؤ بالطقس بالمطارTAF).

المحطات المتاحة هي النقط الصفراء والحمراء على الخريطة.

حرك المؤشر فوق النقطة لمعرفة اسم المحطة.

ثم انقر لمعرفة أرصاد وتوقعات الطقس.

لتغيير الخارطة: اضغط على الأزرار الخضراء مع رمز الصليب الأسود للتكبير. على الزر الأخضر مع شرطة للتصغير، أو على الأسهم الخضراء للخرائط المجاورة.


METAR-TAF: